Time;durP1;ratioP1;P1;durP2;ratioP2;P2;SDS_P1;SDS_P2;PMS_P1;PMS_P2;Temp;Humidity;BMP_temperature;BMP_pressure;BME280_temperature;BME280_humidity;BME280_pressure;Samples;Min_cycle;Max_cycle;Signal;HPM_P1;HPM_P2
2021/10/29 00:01:09;;;;;;;4.68;2.58;;;18.10;53.80;;;;;;5037536;28;20052;-87
2021/10/29 00:03:35;;;;;;;3.80;2.22;;;18.10;53.70;;;;;;5003256;28;20511;-86
2021/10/29 00:06:02;;;;;;;5.22;2.60;;;18.10;53.80;;;;;;5020219;28;20084;-83
2021/10/29 00:08:31;;;;;;;5.25;2.80;;;18.10;53.80;;;;;;5053468;28;20044;-86
2021/10/29 00:10:57;;;;;;;4.22;2.90;;;18.10;53.90;;;;;;5037379;28;20020;-87
2021/10/29 00:13:23;;;;;;;4.38;3.03;;;18.10;53.80;;;;;;5019151;28;20018;-87
2021/10/29 00:15:49;;;;;;;4.75;3.20;;;18.00;53.80;;;;;;5003796;28;20030;-88
2021/10/29 00:18:15;;;;;;;5.65;2.78;;;18.00;53.90;;;;;;5035681;28;20434;-88
2021/10/29 00:20:41;;;;;;;5.63;2.92;;;18.00;54.00;;;;;;5003937;28;20010;-86
2021/10/29 00:23:07;;;;;;;4.03;3.08;;;18.00;54.10;;;;;;5015941;28;20104;-86
2021/10/29 00:25:32;;;;;;;4.95;3.05;;;18.00;54.00;;;;;;5015890;28;20454;-86
2021/10/29 00:27:58;;;;;;;7.03;3.15;;;18.00;54.00;;;;;;5015892;28;20021;-85
2021/10/29 00:30:24;;;;;;;7.13;3.08;;;18.00;54.00;;;;;;4998546;28;20025;-87
2021/10/29 00:32:50;;;;;;;5.35;3.35;;;18.00;54.00;;;;;;5015521;28;20022;-86
2021/10/29 00:35:17;;;;;;;4.97;3.00;;;17.90;54.00;;;;;;5031729;28;20032;-86
2021/10/29 00:37:43;;;;;;;5.68;3.35;;;17.90;54.00;;;;;;5015791;28;20017;-87
2021/10/29 00:40:11;;;;;;;9.13;3.35;;;18.00;53.90;;;;;;5033457;28;20040;-86
2021/10/29 00:42:37;;;;;;;5.82;2.92;;;17.90;54.00;;;;;;5015708;28;20017;-88
2021/10/29 00:45:04;;;;;;;3.53;2.88;;;17.90;54.00;;;;;;5015638;28;20022;-88
2021/10/29 00:47:29;;;;;;;4.50;3.08;;;17.90;54.00;;;;;;5031952;28;20432;-86
2021/10/29 00:49:56;;;;;;;4.68;3.30;;;17.90;54.00;;;;;;5032189;28;20049;-88
2021/10/29 00:52:22;;;;;;;4.22;3.17;;;17.90;54.10;;;;;;5015838;28;20091;-87
2021/10/29 00:54:49;;;;;;;5.05;3.03;;;17.90;54.00;;;;;;5015628;28;20069;-86
2021/10/29 00:57:15;;;;;;;4.55;2.72;;;17.90;53.90;;;;;;5031719;28;20052;-88
2021/10/29 00:59:45;;;;;;;5.55;2.88;;;17.90;54.00;;;;;;5031947;28;20045;-87
2021/10/29 01:02:11;;;;;;;5.88;3.17;;;17.90;54.00;;;;;;4998907;28;20029;-87
2021/10/29 01:04:38;;;;;;;4.32;3.05;;;17.90;54.00;;;;;;5034141;28;20399;-84
2021/10/29 01:07:04;;;;;;;3.63;2.83;;;17.90;54.00;;;;;;5003188;28;20017;-84
2021/10/29 01:09:30;;;;;;;13.25;3.22;;;17.90;54.00;;;;;;5025114;28;20031;-86
2021/10/29 01:11:56;;;;;;;6.30;3.13;;;17.90;53.90;;;;;;5052111;28;20021;-83
2021/10/29 01:14:22;;;;;;;5.18;2.90;;;17.90;53.80;;;;;;5038002;28;20041;-84
2021/10/29 01:16:48;;;;;;;8.18;3.03;;;18.00;53.80;;;;;;5054572;28;20025;-86
2021/10/29 01:19:15;;;;;;;4.80;3.15;;;18.00;53.70;;;;;;5052462;28;20105;-82
2021/10/29 01:21:40;;;;;;;5.82;3.10;;;18.00;53.70;;;;;;5045923;28;20012;-84
2021/10/29 01:24:07;;;;;;;4.32;2.75;;;18.00;53.70;;;;;;5037143;28;20022;-86
2021/10/29 01:26:33;;;;;;;5.22;3.10;;;18.00;53.70;;;;;;5054925;28;20037;-84
2021/10/29 01:29:02;;;;;;;6.40;3.03;;;18.00;53.60;;;;;;5055160;28;20077;-85
2021/10/29 01:31:27;;;;;;;5.53;3.25;;;18.00;53.50;;;;;;5045633;28;20029;-84
2021/10/29 01:33:53;;;;;;;4.50;2.92;;;18.10;53.50;;;;;;5019406;28;20052;-85
2021/10/29 01:36:19;;;;;;;3.55;3.00;;;18.10;53.50;;;;;;5033273;28;20080;-84
2021/10/29 01:38:45;;;;;;;5.97;3.30;;;18.10;53.50;;;;;;4999158;28;20040;-84
2021/10/29 01:41:11;;;;;;;5.80;3.00;;;18.10;53.50;;;;;;4999560;28;20096;-82
2021/10/29 01:43:41;;;;;;;8.77;2.95;;;18.10;53.50;;;;;;5034986;28;20045;-82
2021/10/29 01:46:07;;;;;;;5.05;3.00;;;18.10;53.40;;;;;;5019010;28;20018;-81
2021/10/29 01:48:32;;;;;;;5.32;3.05;;;18.10;53.40;;;;;;5018516;28;20021;-82
2021/10/29 01:50:58;;;;;;;6.22;3.22;;;18.10;53.40;;;;;;5034524;28;20025;-82
2021/10/29 01:53:24;;;;;;;4.70;2.72;;;18.10;53.50;;;;;;5034617;28;20161;-84
2021/10/29 01:55:50;;;;;;;4.18;3.00;;;18.10;53.50;;;;;;5001951;28;20022;-84
2021/10/29 01:58:16;;;;;;;6.93;2.92;;;18.10;53.50;;;;;;5001781;28;20014;-84
2021/10/29 02:00:43;;;;;;;3.65;2.95;;;18.10;53.50;;;;;;5018155;28;20010;-84
2021/10/29 02:03:08;;;;;;;8.15;3.22;;;18.10;53.40;;;;;;5001168;28;20407;-81
2021/10/29 02:05:37;;;;;;;4.50;3.33;;;18.10;53.40;;;;;;5018253;28;20013;-82
2021/10/29 02:08:03;;;;;;;5.25;3.00;;;18.10;53.40;;;;;;5034325;28;20535;-84
2021/10/29 02:10:29;;;;;;;8.02;3.20;;;18.10;53.40;;;;;;5001456;28;20116;-83
2021/10/29 02:12:54;;;;;;;3.65;2.75;;;18.10;53.30;;;;;;5001067;28;20039;-83
2021/10/29 02:15:21;;;;;;;5.70;3.55;;;18.10;53.40;;;;;;5018193;28;20052;-83
2021/10/29 02:17:47;;;;;;;4.82;3.25;;;18.10;53.40;;;;;;5018899;28;20060;-82
2021/10/29 02:20:13;;;;;;;4.63;3.10;;;18.10;53.40;;;;;;5034805;28;20048;-83
2021/10/29 02:22:39;;;;;;;4.85;3.15;;;18.10;53.40;;;;;;5001787;28;20013;-82
2021/10/29 02:25:05;;;;;;;5.13;3.28;;;18.10;53.50;;;;;;5034319;28;20044;-83
2021/10/29 02:27:32;;;;;;;4.70;3.03;;;18.10;53.50;;;;;;5034674;28;20042;-82
2021/10/29 02:29:57;;;;;;;6.70;3.47;;;18.10;53.50;;;;;;5018434;28;20028;-83
2021/10/29 02:32:24;;;;;;;5.72;3.15;;;18.10;53.50;;;;;;5019473;28;20541;-82
2021/10/29 02:34:53;;;;;;;4.82;3.08;;;18.10;53.50;;;;;;5005449;28;20025;-81
2021/10/29 02:37:19;;;;;;;5.38;3.00;;;18.10;53.40;;;;;;5020660;28;20033;-84
2021/10/29 02:39:46;;;;;;;3.45;3.00;;;18.10;53.50;;;;;;5035858;28;20021;-80
2021/10/29 02:42:13;;;;;;;4.70;3.00;;;18.10;53.60;;;;;;5020105;28;20089;-82
2021/10/29 02:44:41;;;;;;;5.57;3.30;;;18.10;53.60;;;;;;5037436;28;20018;-84
2021/10/29 02:47:07;;;;;;;4.78;2.90;;;18.10;53.60;;;;;;5020270;28;20053;-82
2021/10/29 02:49:34;;;;;;;4.90;2.92;;;18.10;53.70;;;;;;5037597;28;20037;-81
2021/10/29 02:51:59;;;;;;;4.07;2.85;;;18.10;53.60;;;;;;5018355;28;20066;-83
2021/10/29 02:54:25;;;;;;;5.53;3.08;;;18.10;53.60;;;;;;5017880;28;20021;-83
2021/10/29 02:56:51;;;;;;;5.78;3.38;;;18.10;53.60;;;;;;5018476;28;20037;-82
2021/10/29 02:59:17;;;;;;;6.78;3.72;;;18.00;53.70;;;;;;5018446;28;20021;-81
2021/10/29 03:01:43;;;;;;;5.30;3.03;;;18.00;53.90;;;;;;5002036;28;20128;-82
2021/10/29 03:04:09;;;;;;;3.83;2.97;;;18.00;53.90;;;;;;5002275;28;20503;-82
2021/10/29 03:06:35;;;;;;;3.95;3.13;;;18.00;53.90;;;;;;5036419;28;20022;-82
2021/10/29 03:09:01;;;;;;;7.32;3.30;;;18.00;54.00;;;;;;5035740;28;20045;-83
2021/10/29 03:11:26;;;;;;;6.18;3.47;;;18.00;54.00;;;;;;5019365;28;20059;-81
2021/10/29 03:13:53;;;;;;;4.90;3.30;;;17.90;54.10;;;;;;5018937;28;20028;-82
2021/10/29 03:16:19;;;;;;;6.95;3.50;;;17.90;54.20;;;;;;5019786;28;20105;-83
2021/10/29 03:18:44;;;;;;;5.13;3.03;;;17.80;54.20;;;;;;5006527;28;20025;-81
2021/10/29 03:21:10;;;;;;;6.68;3.33;;;17.80;54.40;;;;;;5023316;28;20037;-80
2021/10/29 03:23:36;;;;;;;4.45;3.47;;;17.80;54.30;;;;;;5024987;28;20018;-81
2021/10/29 03:26:03;;;;;;;4.72;2.83;;;17.80;54.30;;;;;;5041152;28;20384;-81
2021/10/29 03:28:29;;;;;;;6.18;3.42;;;17.80;54.50;;;;;;5041147;28;20025;-83
2021/10/29 03:30:55;;;;;;;4.40;3.05;;;17.80;54.50;;;;;;5027519;28;20026;-80
2021/10/29 03:33:21;;;;;;;4.55;3.28;;;17.70;54.50;;;;;;5043296;28;20063;-82
2021/10/29 03:35:47;;;;;;;5.82;3.58;;;17.80;54.40;;;;;;5026357;28;20033;-83
2021/10/29 03:41:14;;;;;;;4.55;2.95;;;17.70;54.50;;;;;;4973826;28;20046;-83
2021/10/29 03:43:46;;;;;;;6.85;3.67;;;17.70;54.60;;;;;;4966382;28;20126;-81
2021/10/29 03:53:55;;;;;;;6.90;3.60;;;17.60;54.70;;;;;;4961211;28;20042;-82
2021/10/29 03:56:24;;;;;;;5.32;3.40;;;17.60;54.80;;;;;;4962586;28;20097;-81
2021/10/29 03:58:50;;;;;;;4.25;3.17;;;17.60;54.70;;;;;;4961030;28;20098;-80
2021/10/29 04:01:16;;;;;;;6.68;3.40;;;17.60;54.70;;;;;;4961593;28;20050;-80
2021/10/29 04:03:45;;;;;;;4.07;3.00;;;17.60;54.70;;;;;;4944307;28;20539;-83
2021/10/29 04:06:11;;;;;;;5.82;3.00;;;17.60;54.70;;;;;;4943160;28;20026;-81
2021/10/29 04:08:39;;;;;;;5.47;3.40;;;17.60;54.70;;;;;;4959648;28;20055;-83
2021/10/29 04:11:06;;;;;;;4.75;3.47;;;17.50;54.70;;;;;;4943386;28;20382;-83
2021/10/29 04:13:37;;;;;;;7.22;3.58;;;17.60;54.70;;;;;;4961162;28;20049;-81
2021/10/29 04:16:04;;;;;;;6.95;3.47;;;17.60;54.80;;;;;;4958942;28;20069;-81
2021/10/29 04:18:32;;;;;;;5.28;2.88;;;17.60;54.70;;;;;;5036529;28;20112;-80
2021/10/29 04:21:01;;;;;;;5.40;3.08;;;17.60;54.70;;;;;;5040792;28;20061;-80
2021/10/29 04:23:28;;;;;;;5.32;3.40;;;17.60;54.70;;;;;;5024629;28;20078;-82
2021/10/29 04:25:55;;;;;;;4.63;2.75;;;17.50;54.70;;;;;;5040673;28;20006;-81
2021/10/29 04:28:21;;;;;;;5.43;3.20;;;17.50;54.90;;;;;;5040236;28;20085;-83
2021/10/29 04:30:47;;;;;;;4.00;3.00;;;17.50;54.90;;;;;;5040371;28;20034;-81
2021/10/29 04:33:13;;;;;;;5.95;2.92;;;17.50;54.80;;;;;;5040873;28;20018;-82
2021/10/29 04:35:41;;;;;;;5.45;2.83;;;17.60;54.70;;;;;;5020345;28;20433;-83
2021/10/29 04:38:07;;;;;;;8.65;3.45;;;17.60;54.70;;;;;;5033759;28;20025;-83
2021/10/29 04:40:34;;;;;;;6.22;3.20;;;17.60;55.10;;;;;;5018072;28;20384;-84
2021/10/29 04:43:02;;;;;;;6.60;3.05;;;17.70;54.50;;;;;;5035181;28;20035;-81
2021/10/29 04:45:28;;;;;;;3.45;3.00;;;17.70;54.40;;;;;;5037055;28;20021;-80
2021/10/29 04:47:54;;;;;;;5.05;3.47;;;17.70;54.30;;;;;;5020678;28;20026;-83
2021/10/29 04:50:20;;;;;;;5.40;3.28;;;17.80;54.10;;;;;;5019326;28;20403;-84
2021/10/29 04:52:46;;;;;;;4.97;3.38;;;17.90;53.80;;;;;;5034658;28;20399;-82
2021/10/29 04:55:12;;;;;;;6.13;3.03;;;18.00;53.50;;;;;;5035074;28;20018;-82
2021/10/29 04:57:38;;;;;;;7.15;3.28;;;18.10;53.30;;;;;;5017937;28;20052;-84
2021/10/29 05:00:05;;;;;;;4.68;3.10;;;18.10;53.20;;;;;;5018635;28;20092;-81
2021/10/29 05:02:32;;;;;;;9.88;3.13;;;18.20;53.00;;;;;;5018325;28;20551;-83
2021/10/29 05:04:57;;;;;;;6.38;3.20;;;18.30;52.90;;;;;;5017323;28;20037;-81
2021/10/29 05:07:23;;;;;;;5.53;3.13;;;18.40;52.50;;;;;;5017567;28;20479;-82
2021/10/29 05:09:49;;;;;;;5.95;2.90;;;18.40;52.50;;;;;;5017256;28;20528;-82
2021/10/29 05:12:15;;;;;;;6.32;3.30;;;18.50;52.20;;;;;;5032790;28;20045;-81
2021/10/29 05:14:43;;;;;;;6.10;3.03;;;18.60;52.10;;;;;;5015863;28;20063;-81
2021/10/29 05:17:11;;;;;;;7.30;3.03;;;18.60;51.90;;;;;;5019409;28;20030;-81
2021/10/29 05:19:37;;;;;;;7.97;3.20;;;18.60;51.90;;;;;;5020561;28;20022;-81
2021/10/29 05:22:03;;;;;;;5.15;2.95;;;18.60;51.80;;;;;;5019426;28;20014;-80
2021/10/29 05:24:29;;;;;;;6.95;3.00;;;18.60;51.70;;;;;;5019059;28;20076;-81
2021/10/29 05:26:55;;;;;;;5.43;2.88;;;18.70;51.50;;;;;;5037218;28;20018;-81
2021/10/29 05:29:22;;;;;;;4.65;2.85;;;18.70;51.60;;;;;;5037455;28;20389;-82
2021/10/29 05:31:48;;;;;;;6.82;3.15;;;18.70;51.50;;;;;;5035854;28;20072;-84
2021/10/29 05:34:13;;;;;;;8.57;3.22;;;18.80;51.40;;;;;;5035684;28;20112;-81
2021/10/29 05:36:40;;;;;;;6.70;3.20;;;18.90;51.20;;;;;;5019058;28;20022;-81
2021/10/29 05:39:06;;;;;;;5.70;2.90;;;18.90;51.00;;;;;;5019300;28;20104;-83
2021/10/29 05:41:32;;;;;;;4.90;2.83;;;18.90;51.00;;;;;;5018872;28;20484;-83
2021/10/29 05:44:00;;;;;;;3.97;2.55;;;19.00;51.00;;;;;;5018734;28;20602;-83
2021/10/29 05:46:28;;;;;;;4.70;3.05;;;19.00;50.90;;;;;;5038146;28;20062;-82
2021/10/29 05:48:54;;;;;;;3.92;2.70;;;19.00;50.80;;;;;;5004365;28;20017;-85
2021/10/29 05:51:22;;;;;;;4.13;2.60;;;19.10;50.70;;;;;;5019629;28;20490;-82
2021/10/29 05:56:17;;;;;;;5.03;2.60;;;19.10;50.50;;;;;;5021272;28;20029;-83
2021/10/29 05:58:43;;;;;;;4.97;2.97;;;19.20;50.40;;;;;;5004869;28;20430;-83
2021/10/29 06:01:25;;;;;;;5.50;3.10;;;19.20;50.40;;;;;;5023788;28;20076;-84
2021/10/29 06:03:57;;;;;;;6.85;3.13;;;19.30;50.30;;;;;;5027101;28;20137;-85
2021/10/29 06:06:23;;;;;;;3.60;2.63;;;19.30;50.30;;;;;;5013103;28;20026;-83
2021/10/29 06:08:55;;;;;;;7.60;2.83;;;19.20;50.30;;;;;;5011575;28;20026;-84
2021/10/29 06:11:26;;;;;;;;;;;19.20;50.20;;;;;;5046878;28;20475;-85
2021/10/29 06:14:13;;;;;;;4.95;2.80;;;19.30;50.20;;;;;;5029508;28;19913;-85
2021/10/29 06:16:57;;;;;;;8.15;3.33;;;19.20;50.20;;;;;;5032508;28;20021;-83
2021/10/29 06:19:45;;;;;;;7.25;2.95;;;19.30;50.20;;;;;;5014356;28;20021;-84
2021/10/29 06:22:30;;;;;;;5.53;3.03;;;19.30;50.20;;;;;;5038846;28;20024;-83
2021/10/29 06:25:13;;;;;;;5.03;3.08;;;19.20;50.20;;;;;;5031351;28;20021;-83
2021/10/29 06:30:27;;;;;;;11.43;3.38;;;19.00;53.30;;;;;;5035753;28;20499;-83
2021/10/29 06:32:53;;;;;;;11.75;3.80;;;19.10;53.50;;;;;;5014831;28;20021;-81
2021/10/29 06:35:22;;;;;;;12.85;3.85;;;19.40;53.90;;;;;;5047268;28;20013;-84
2021/10/29 06:37:50;;;;;;;10.10;3.35;;;19.60;53.80;;;;;;5043227;28;20034;-86
2021/10/29 06:40:20;;;;;;;15.18;3.30;;;19.80;53.80;;;;;;5025242;28;20041;-83
2021/10/29 06:42:56;;;;;;;8.05;3.08;;;19.80;53.60;;;;;;5041638;28;20037;-85
2021/10/29 07:11:37;;;;;;;7.20;3.33;;;20.70;51.20;;;;;;4968070;28;20027;-80
2021/10/29 07:40:15;;;;;;;7.30;3.20;;;20.50;49.20;;;;;;5032943;28;20056;-80
2021/10/29 07:42:59;;;;;;;10.88;3.60;;;20.50;49.20;;;;;;5047457;28;20013;-80
2021/10/29 07:45:32;;;;;;;8.20;3.47;;;20.60;49.30;;;;;;5030291;28;20025;-80
2021/10/29 07:47:58;;;;;;;11.27;3.47;;;20.60;49.30;;;;;;5029599;28;20047;-83
2021/10/29 07:50:24;;;;;;;7.68;3.45;;;20.60;49.30;;;;;;5026438;28;20017;-81
2021/10/29 07:52:51;;;;;;;4.38;2.63;;;20.60;49.00;;;;;;5011115;28;20491;-80
2021/10/29 07:55:21;;;;;;;11.50;3.20;;;20.60;48.90;;;;;;5024591;28;20399;-82
2021/10/29 07:57:48;;;;;;;9.15;3.35;;;20.50;49.00;;;;;;5023701;28;20388;-81
2021/10/29 08:00:20;;;;;;;7.88;2.53;;;20.40;49.30;;;;;;5043416;28;20460;-81
2021/10/29 08:02:51;;;;;;;7.88;3.25;;;20.40;49.70;;;;;;5008511;28;20083;-80
2021/10/29 08:05:23;;;;;;;12.57;2.80;;;20.40;49.40;;;;;;5041543;28;20033;-81
2021/10/29 08:07:54;;;;;;;8.98;3.05;;;20.50;49.20;;;;;;5010348;28;20056;-80
2021/10/29 08:10:22;;;;;;;10.98;3.08;;;20.70;49.00;;;;;;5006975;28;20061;-82
2021/10/29 08:12:48;;;;;;;10.05;2.75;;;20.80;49.30;;;;;;5007151;28;20097;-79
2021/10/29 08:15:14;;;;;;;9.20;2.88;;;20.90;48.50;;;;;;5006909;28;20061;-82
2021/10/29 08:17:41;;;;;;;11.30;3.28;;;20.90;48.40;;;;;;5021870;28;20089;-78
2021/10/29 08:20:09;;;;;;;9.73;3.00;;;20.90;48.30;;;;;;5005112;28;20025;-79
2021/10/29 08:22:43;;;;;;;7.28;2.85;;;20.90;48.20;;;;;;5008642;28;20029;-79
2021/10/29 08:25:20;;;;;;;7.32;2.83;;;20.90;48.70;;;;;;5044668;28;20029;-79
2021/10/29 08:27:46;;;;;;;7.07;2.78;;;21.00;49.00;;;;;;5012604;28;20048;-81
2021/10/29 08:30:12;;;;;;;8.90;3.00;;;21.10;48.90;;;;;;5022643;28;20376;-80
2021/10/29 08:32:40;;;;;;;9.68;3.85;;;21.20;49.00;;;;;;5022474;28;20024;-81
2021/10/29 08:35:07;;;;;;;6.32;2.95;;;21.30;48.90;;;;;;5037761;28;20102;-79
2021/10/29 08:37:33;;;;;;;6.55;2.85;;;21.30;48.90;;;;;;5019685;28;20025;-79
2021/10/29 08:40:00;;;;;;;9.48;3.20;;;21.40;49.10;;;;;;5037134;28;20419;-79
2021/10/29 08:42:35;;;;;;;10.02;3.08;;;21.40;49.20;;;;;;5020608;28;20062;-80
2021/10/29 08:45:05;;;;;;;5.50;2.53;;;21.50;49.30;;;;;;5007279;28;20088;-79
2021/10/29 08:47:36;;;;;;;8.45;3.13;;;21.50;49.50;;;;;;5005270;28;20033;-79
2021/10/29 08:50:06;;;;;;;8.85;2.55;;;21.70;49.70;;;;;;5037663;28;20078;-79
2021/10/29 08:52:33;;;;;;;10.23;2.67;;;21.70;49.50;;;;;;5042504;28;20113;-81
2021/10/29 08:54:59;;;;;;;10.57;3.20;;;21.80;49.50;;;;;;5043916;28;20114;-80
2021/10/29 08:57:28;;;;;;;9.70;3.05;;;21.60;49.00;;;;;;5009721;28;20073;-80
2021/10/29 08:59:56;;;;;;;6.90;2.92;;;21.50;48.90;;;;;;5042896;28;20025;-78
2021/10/29 09:02:28;;;;;;;8.10;3.13;;;21.30;48.40;;;;;;5023164;28;20041;-82
2021/10/29 09:33:07;;;;;;;9.80;3.00;;;20.80;50.00;;;;;;4978262;28;20069;-85
2021/10/29 09:35:54;;;;;;;9.10;2.90;;;20.50;50.20;;;;;;4973230;28;20090;-83
2021/10/29 09:38:22;;;;;;;8.70;2.80;;;20.60;49.90;;;;;;4973459;28;20545;-85
2021/10/29 09:41:04;;;;;;;10.20;2.78;;;20.40;50.10;;;;;;4957244;28;20015;-85
2021/10/29 09:43:33;;;;;;;6.35;2.50;;;20.60;50.40;;;;;;4968528;28;20023;-82
2021/10/29 09:46:05;;;;;;;5.20;2.40;;;20.80;50.00;;;;;;5034605;28;20029;-83
2021/10/29 09:48:49;;;;;;;6.22;2.30;;;20.90;49.90;;;;;;5035483;28;20052;-82
2021/10/29 09:51:22;;;;;;;8.93;2.47;;;20.90;49.70;;;;;;5017952;28;20056;-83
2021/10/29 09:56:48;;;;;;;23.20;3.83;;;21.10;50.00;;;;;;5030330;28;20076;-78
2021/10/29 09:59:14;;;;;;;20.02;3.55;;;21.00;49.50;;;;;;5028154;28;20022;-82
2021/10/29 10:01:40;;;;;;;19.50;3.47;;;21.00;49.50;;;;;;5026207;28;20029;-79
2021/10/29 10:04:07;;;;;;;17.42;3.95;;;21.10;49.50;;;;;;5039512;28;20037;-80
2021/10/29 10:06:33;;;;;;;9.82;3.45;;;21.10;49.40;;;;;;5006002;28;20415;-81
2021/10/29 10:09:00;;;;;;;22.02;4.28;;;21.10;49.20;;;;;;5006464;28;20029;-79
2021/10/29 10:11:27;;;;;;;12.68;3.78;;;21.10;49.20;;;;;;5021729;28;20545;-81
2021/10/29 10:13:58;;;;;;;14.10;3.20;;;21.10;49.20;;;;;;5022135;28;20068;-79
2021/10/29 10:16:27;;;;;;;11.43;3.88;;;21.10;49.20;;;;;;5024436;28;20435;-81
2021/10/29 10:18:55;;;;;;;13.00;2.97;;;21.20;49.00;;;;;;5023729;28;20028;-80
2021/10/29 10:21:22;;;;;;;7.20;3.08;;;21.10;48.90;;;;;;5038007;28;20075;-79
2021/10/29 10:23:51;;;;;;;13.07;3.50;;;21.10;48.80;;;;;;5020893;28;20491;-79
2021/10/29 10:26:26;;;;;;;9.00;3.35;;;21.10;48.90;;;;;;5021339;28;20093;-80
2021/10/29 10:45:49;;;;;;;10.25;3.13;;;20.80;49.40;;;;;;5024442;28;20040;-83
2021/10/29 10:51:36;;;;;;;12.38;3.63;;;20.30;50.00;;;;;;5040696;28;20394;-82
2021/10/29 10:54:45;;;;;;;17.63;3.50;;;20.20;52.00;;;;;;5040128;28;20044;-84
2021/10/29 11:00:30;;;;;;;14.63;3.63;;;20.60;52.20;;;;;;5047560;28;20112;-81
2021/10/29 11:06:02;;;;;;;17.02;3.60;;;21.10;52.20;;;;;;5029587;28;20118;-82
2021/10/29 11:11:14;;;;;;;15.02;3.50;;;21.40;51.80;;;;;;5044703;28;20076;-81
2021/10/29 11:13:43;;;;;;;10.23;3.97;;;21.60;52.60;;;;;;5014494;28;20022;-79
2021/10/29 11:16:17;;;;;;;14.23;3.63;;;21.80;52.30;;;;;;5044767;28;20026;-85
2021/10/29 11:19:02;;;;;;;18.63;3.50;;;21.70;51.90;;;;;;5013913;28;20026;-81
2021/10/29 11:21:35;;;;;;;9.65;3.33;;;21.90;51.70;;;;;;5031402;28;20018;-86
2021/10/29 11:24:32;;;;;;;12.50;3.75;;;21.90;51.60;;;;;;5031931;28;20036;-83
2021/10/29 11:27:27;;;;;;;12.77;3.55;;;21.80;52.60;;;;;;5031448;28;20038;-81
2021/10/29 11:33:02;;;;;;;15.60;3.75;;;21.80;52.80;;;;;;4934554;29;20043;-84
2021/10/29 11:35:33;;;;;;;18.08;4.88;;;21.80;52.80;;;;;;4945218;29;20047;-82
2021/10/29 11:38:10;;;;;;;18.77;4.03;;;21.70;52.90;;;;;;4912782;29;20039;-81
2021/10/29 11:40:36;;;;;;;10.85;3.33;;;21.70;52.40;;;;;;4939714;29;20110;-78
2021/10/29 11:43:02;;;;;;;15.82;4.28;;;21.00;50.90;;;;;;4937530;29;20023;-74
2021/10/29 11:45:51;;;;;;;21.83;4.30;;;20.80;52.30;;;;;;4905307;29;20131;-76
2021/10/29 11:48:17;;;;;;;9.70;2.92;;;20.80;52.40;;;;;;4919773;29;20084;-74
2021/10/29 11:51:04;;;;;;;11.30;2.95;;;20.40;52.10;;;;;;4905560;29;20087;-75
2021/10/29 11:53:40;;;;;;;5.10;2.80;;;20.30;52.60;;;;;;4936180;29;20036;-74
2021/10/29 11:56:41;;;;;;;11.25;3.28;;;20.50;53.30;;;;;;4919763;29;20040;-74
2021/10/29 12:07:24;;;;;;;6.93;2.42;;;20.60;52.50;;;;;;4973034;28;20042;-74
2021/10/29 12:09:51;;;;;;;8.52;3.05;;;20.60;53.50;;;;;;5005550;28;20111;-76
2021/10/29 12:12:20;;;;;;;6.28;2.30;;;20.50;52.50;;;;;;5002652;28;20341;-76
2021/10/29 12:14:47;;;;;;;6.60;2.78;;;20.30;53.10;;;;;;5002524;28;20037;-79
2021/10/29 12:17:23;;;;;;;12.95;3.00;;;20.30;53.20;;;;;;5018896;28;20029;-80
2021/10/29 12:19:56;;;;;;;11.52;2.70;;;20.50;53.90;;;;;;5035477;28;20069;-81
2021/10/29 12:22:42;;;;;;;12.70;2.70;;;20.40;53.10;;;;;;5006252;28;20034;-80
2021/10/29 12:25:30;;;;;;;4.80;2.38;;;20.40;52.70;;;;;;5009336;28;20028;-79
2021/10/29 12:28:05;;;;;;;5.82;2.45;;;20.30;53.90;;;;;;5021334;28;20029;-79
2021/10/29 12:30:41;;;;;;;13.38;3.67;;;20.30;53.60;;;;;;5019125;28;20029;-82
2021/10/29 13:01:58;;;;;;;6.10;2.50;;;19.70;54.80;;;;;;5025500;28;20147;-81
2021/10/29 13:04:43;;;;;;;9.23;3.03;;;19.70;56.00;;;;;;5021207;28;20047;-83
2021/10/29 13:07:12;;;;;;;8.35;2.60;;;19.90;55.80;;;;;;5037609;28;20104;-84
2021/10/29 13:10:04;;;;;;;5.68;2.58;;;20.00;55.60;;;;;;5004533;28;20018;-83
2021/10/29 13:12:39;;;;;;;;;;;20.20;55.60;;;;;;5008378;28;20029;-80
2021/10/29 13:15:12;;;;;;;13.38;3.05;;;20.30;55.60;;;;;;5038475;28;19901;-81
2021/10/29 13:17:45;;;;;;;14.45;2.75;;;20.60;54.80;;;;;;5022953;28;20022;-81
2021/10/29 13:23:18;;;;;;;11.00;2.70;;;20.90;53.70;;;;;;5024058;28;20151;-83
2021/10/29 13:28:27;;;;;;;13.32;2.42;;;21.20;53.00;;;;;;5039864;28;20087;-84
2021/10/29 13:36:31;;;;;;;10.65;3.13;;;21.30;52.50;;;;;;5037586;28;20033;-83
2021/10/29 13:50:34;;;;;;;12.07;2.42;;;21.30;52.60;;;;;;5043057;28;20032;-81
2021/10/29 13:56:17;;;;;;;8.95;2.65;;;21.30;52.70;;;;;;5039771;28;20055;-82
2021/10/29 13:58:41;;;;;;;11.35;2.95;;;21.30;52.70;;;;;;5030170;28;20072;-82
2021/10/29 14:16:21;;;;;;;5.40;2.28;;;21.20;52.90;;;;;;5020456;28;20107;-82
2021/10/29 14:30:39;;;;;;;7.20;2.53;;;21.20;52.90;;;;;;5021092;28;20051;-82
2021/10/29 14:35:41;;;;;;;4.95;2.15;;;21.20;52.90;;;;;;5035002;28;20031;-82
2021/10/29 14:38:21;;;;;;;7.20;2.38;;;21.20;52.90;;;;;;5004285;28;20104;-82
2021/10/29 14:40:58;;;;;;;7.50;1.93;;;21.30;52.90;;;;;;5020887;28;20396;-82
2021/10/29 14:49:04;;;;;;;5.68;2.35;;;21.30;52.90;;;;;;5035908;28;20025;-82
2021/10/29 15:43:13;;;;;;;4.72;1.92;;;21.50;52.60;;;;;;5031438;28;20028;-82
2021/10/29 15:45:39;;;;;;;4.57;1.92;;;21.50;52.60;;;;;;5044800;28;20018;-81
2021/10/29 15:48:18;;;;;;;3.25;1.83;;;21.50;52.50;;;;;;5027922;28;20068;-82
2021/10/29 15:50:44;;;;;;;4.82;2.20;;;21.50;52.60;;;;;;5047124;28;20081;-83
2021/10/29 15:53:18;;;;;;;6.80;2.10;;;21.50;52.60;;;;;;5051403;28;20105;-82
2021/10/29 15:55:49;;;;;;;4.55;2.38;;;21.50;52.60;;;;;;5052143;28;20030;-82
2021/10/29 15:58:45;;;;;;;4.00;1.90;;;21.50;52.70;;;;;;5031104;28;20498;-82
2021/10/29 16:17:42;;;;;;;4.38;1.80;;;21.50;52.80;;;;;;5035225;28;20040;-82
2021/10/29 16:20:27;;;;;;;5.13;2.13;;;21.40;52.90;;;;;;5018972;28;20033;-82
2021/10/29 16:23:13;;;;;;;3.15;2.22;;;21.40;52.90;;;;;;5018764;28;20476;-82
2021/10/29 16:26:02;;;;;;;4.00;2.05;;;21.40;53.00;;;;;;5016238;28;20028;-82
2021/10/29 16:28:32;;;;;;;3.17;2.10;;;21.30;53.70;;;;;;5032331;28;20033;-82
2021/10/29 16:30:59;;;;;;;3.00;1.70;;;21.40;53.20;;;;;;5032671;28;20025;-82
2021/10/29 16:33:35;;;;;;;4.35;1.83;;;21.40;53.20;;;;;;5016828;28;20021;-82
2021/10/29 16:36:01;;;;;;;4.07;1.90;;;21.30;53.20;;;;;;5032703;28;20116;-82
2021/10/29 16:38:27;;;;;;;3.15;1.70;;;21.30;53.30;;;;;;4999605;28;20032;-82
2021/10/29 16:40:53;;;;;;;4.32;1.85;;;21.20;53.40;;;;;;5016119;28;20014;-83
2021/10/29 16:43:19;;;;;;;3.75;1.60;;;21.20;53.50;;;;;;5016567;28;20025;-82
2021/10/29 16:45:46;;;;;;;3.92;1.77;;;21.20;53.50;;;;;;5018076;28;20009;-83
2021/10/29 16:48:13;;;;;;;3.65;1.90;;;21.20;53.50;;;;;;5017796;28;20056;-83
2021/10/29 16:50:39;;;;;;;2.95;1.70;;;21.20;53.70;;;;;;5034882;28;20033;-82
2021/10/29 16:53:05;;;;;;;3.28;2.10;;;21.20;53.80;;;;;;5034304;28;20021;-82
2021/10/29 16:55:31;;;;;;;3.90;2.17;;;21.10;53.80;;;;;;5028437;28;20492;-82
2021/10/29 16:57:57;;;;;;;3.55;1.75;;;21.10;53.80;;;;;;5034198;28;20471;-82
2021/10/29 17:00:22;;;;;;;3.78;1.67;;;21.10;53.80;;;;;;5036039;28;20045;-80
2021/10/29 17:02:49;;;;;;;3.53;1.80;;;21.10;53.90;;;;;;5052062;28;20034;-82
2021/10/29 17:05:15;;;;;;;4.72;2.20;;;21.10;54.00;;;;;;5053228;28;19990;-81
2021/10/29 17:07:41;;;;;;;3.85;2.00;;;21.00;54.10;;;;;;5037631;28;20013;-83
2021/10/29 17:10:10;;;;;;;3.13;1.73;;;21.00;54.10;;;;;;5034761;28;20017;-83
2021/10/29 17:12:37;;;;;;;3.55;1.90;;;21.00;54.20;;;;;;5030263;28;20467;-83
2021/10/29 17:15:06;;;;;;;4.38;1.88;;;21.00;54.10;;;;;;5043130;28;20015;-83
2021/10/29 17:17:34;;;;;;;2.90;1.70;;;21.00;54.20;;;;;;5023058;28;20076;-83
2021/10/29 17:20:01;;;;;;;2.90;1.75;;;21.00;54.20;;;;;;5039833;28;20022;-82
2021/10/29 17:22:26;;;;;;;2.90;1.80;;;21.00;54.30;;;;;;5021723;28;20037;-83
2021/10/29 17:24:52;;;;;;;5.40;1.92;;;20.90;54.30;;;;;;5021350;28;20530;-83
2021/10/29 17:27:18;;;;;;;3.15;1.70;;;20.90;54.30;;;;;;5021380;28;20025;-83
2021/10/29 17:29:44;;;;;;;3.55;1.80;;;20.90;54.40;;;;;;5038475;28;20493;-82
2021/10/29 17:32:12;;;;;;;2.88;1.60;;;20.80;54.50;;;;;;5038401;28;20048;-82
2021/10/29 17:34:41;;;;;;;3.75;1.90;;;20.80;54.60;;;;;;5037351;28;20014;-83
2021/10/29 17:37:07;;;;;;;3.42;1.70;;;20.80;54.50;;;;;;5039094;28;20388;-83
2021/10/29 17:39:33;;;;;;;3.00;1.88;;;20.80;54.60;;;;;;5037648;28;20100;-82
2021/10/29 17:42:02;;;;;;;3.25;1.70;;;20.80;54.70;;;;;;5004300;28;20561;-82
2021/10/29 17:44:27;;;;;;;3.67;1.80;;;20.80;54.80;;;;;;5037205;28;20013;-83
2021/10/29 17:46:56;;;;;;;2.85;1.92;;;20.80;54.80;;;;;;5020111;28;20021;-83
2021/10/29 17:49:22;;;;;;;2.08;1.58;;;20.80;54.80;;;;;;5035883;28;20014;-82
2021/10/29 17:51:48;;;;;;;3.30;1.88;;;20.80;54.90;;;;;;5037149;28;20036;-81
2021/10/29 17:54:16;;;;;;;2.80;1.77;;;20.70;54.90;;;;;;5019454;28;20376;-83